createdAt,value
2019-03-05T00:01:47.880Z,0.93
2019-03-05T00:04:14.088Z,1.23
2019-03-05T00:06:40.114Z,1.43
2019-03-05T00:09:10.345Z,1.10
2019-03-05T00:11:56.246Z,1.70
2019-03-05T00:14:22.508Z,1.17
2019-03-05T00:16:48.588Z,1.87
2019-03-05T00:19:14.623Z,1.27
2019-03-05T00:21:40.631Z,1.97
2019-03-05T00:24:44.388Z,1.33
2019-03-05T00:27:10.415Z,1.30
2019-03-05T00:29:46.518Z,2.20
2019-03-05T00:32:13.567Z,1.37
2019-03-05T00:34:52.308Z,1.60
2019-03-05T00:37:42.900Z,2.17
2019-03-05T00:40:27.381Z,1.77
2019-03-05T00:42:57.102Z,1.90
2019-03-05T00:45:43.335Z,1.57
2019-03-05T00:48:40.311Z,1.20
2019-03-05T00:51:26.758Z,1.13
2019-03-05T00:53:59.719Z,1.13
2019-03-05T00:56:44.692Z,1.40
2019-03-05T00:59:29.845Z,1.40
2019-03-05T01:02:18.009Z,1.10
2019-03-05T01:05:03.211Z,0.87
2019-03-05T01:07:29.377Z,1.17
2019-03-05T01:09:55.414Z,0.83
2019-03-05T01:12:22.327Z,1.70
2019-03-05T01:14:48.868Z,1.20
2019-03-05T01:17:14.875Z,1.30
2019-03-05T01:19:40.916Z,1.20
2019-03-05T01:22:07.203Z,1.10
2019-03-05T01:24:33.208Z,1.10
2019-03-05T01:26:59.236Z,0.80
2019-03-05T01:29:25.263Z,1.20
2019-03-05T01:31:55.915Z,1.17
2019-03-05T01:34:25.303Z,0.67
2019-03-05T01:36:55.144Z,0.80
2019-03-05T01:39:31.887Z,1.20
2019-03-05T01:41:58.133Z,1.00
2019-03-05T01:44:24.135Z,1.17
2019-03-05T01:46:50.179Z,1.20
2019-03-05T01:49:16.204Z,1.23
2019-03-05T01:51:42.231Z,1.20
2019-03-05T01:54:08.248Z,1.22
2019-03-05T01:56:34.271Z,1.03
2019-03-05T01:59:00.283Z,1.20
2019-03-05T02:01:26.321Z,1.10
2019-03-05T02:03:52.334Z,1.03
2019-03-05T02:06:19.164Z,1.53
2019-03-05T02:09:05.955Z,1.10
2019-03-05T02:11:31.995Z,1.93
2019-03-05T02:13:58.032Z,1.67
2019-03-05T02:16:24.071Z,1.50
2019-03-05T02:18:50.075Z,1.13
2019-03-05T02:21:16.129Z,1.77
2019-03-05T02:23:54.712Z,1.73
2019-03-05T02:26:53.423Z,1.50
2019-03-05T02:29:35.703Z,1.50
2019-03-05T02:32:08.628Z,1.40
2019-03-05T02:34:59.456Z,1.83
2019-03-05T02:37:44.778Z,1.40
2019-03-05T02:40:17.380Z,1.30
2019-03-05T02:43:04.059Z,1.07
2019-03-05T02:45:37.034Z,1.30
2019-03-05T02:48:25.378Z,0.90
2019-03-05T02:51:18.211Z,1.40
2019-03-05T02:54:11.791Z,1.13
2019-03-05T02:57:07.237Z,1.37
2019-03-05T02:59:33.280Z,1.50
2019-03-05T03:02:04.253Z,1.20
2019-03-05T03:04:40.992Z,1.43
2019-03-05T03:07:06.999Z,1.47
2019-03-05T03:09:36.952Z,1.37
2019-03-05T03:12:03.121Z,1.70
2019-03-05T03:14:29.157Z,1.20
2019-03-05T03:16:55.188Z,1.13
2019-03-05T03:19:21.216Z,1.13
2019-03-05T03:21:47.236Z,1.27
2019-03-05T03:24:13.279Z,1.30
2019-03-05T03:26:39.279Z,1.70
2019-03-05T03:29:05.302Z,1.27
2019-03-05T03:31:31.360Z,1.00
2019-03-05T03:33:57.660Z,1.40
2019-03-05T03:36:23.706Z,1.23
2019-03-05T03:38:49.804Z,1.67
2019-03-05T03:41:15.874Z,1.00
2019-03-05T03:43:41.959Z,1.40
2019-03-05T03:46:08.005Z,1.30
2019-03-05T03:48:34.070Z,1.17
2019-03-05T03:51:00.169Z,2.03
2019-03-05T03:53:26.204Z,1.27
2019-03-05T03:55:52.266Z,1.30
2019-03-05T03:58:18.292Z,1.63
2019-03-05T04:00:44.333Z,1.47
2019-03-05T04:03:10.455Z,1.10
2019-03-05T04:05:36.503Z,1.23
2019-03-05T04:08:02.608Z,1.47
2019-03-05T04:10:28.653Z,1.53
2019-03-05T04:12:54.685Z,1.43
2019-03-05T04:15:20.721Z,1.20
2019-03-05T04:17:46.950Z,1.57
2019-03-05T04:20:16.371Z,1.37
2019-03-05T04:22:43.418Z,1.10
2019-03-05T04:25:09.572Z,1.10
2019-03-05T04:27:35.608Z,1.27
2019-03-05T04:30:02.856Z,1.10
2019-03-05T04:32:28.875Z,1.20
2019-03-05T04:34:54.895Z,0.90
2019-03-05T04:37:20.931Z,1.53
2019-03-05T04:39:46.944Z,1.07
2019-03-05T04:42:12.979Z,1.30
2019-03-05T04:45:00.780Z,1.07
2019-03-05T04:47:26.816Z,1.87
2019-03-05T04:49:54.735Z,1.20
2019-03-05T04:52:21.879Z,1.30
2019-03-05T04:54:47.892Z,1.17
2019-03-05T04:57:13.928Z,1.60
2019-03-05T04:59:39.943Z,1.33
2019-03-05T05:02:06.078Z,1.57
2019-03-05T05:04:32.090Z,0.90
2019-03-05T05:06:58.128Z,1.07
2019-03-05T05:09:24.153Z,0.90
2019-03-05T05:11:50.175Z,0.93
2019-03-05T05:14:16.198Z,1.50
2019-03-05T05:16:42.255Z,1.17
2019-03-05T05:19:08.300Z,1.33
2019-03-05T05:21:34.349Z,0.70
2019-03-05T05:24:00.369Z,1.17
2019-03-05T05:26:26.421Z,1.13
2019-03-05T05:28:52.428Z,1.07
2019-03-05T05:31:19.467Z,1.20
2019-03-05T05:33:45.496Z,1.83
2019-03-05T05:36:11.537Z,1.40
2019-03-05T05:38:37.571Z,0.90
2019-03-05T05:41:03.616Z,0.90
2019-03-05T05:43:30.940Z,0.90
2019-03-05T05:46:00.001Z,0.80
2019-03-05T05:48:26.068Z,1.23
2019-03-05T05:50:52.093Z,1.40
2019-03-05T05:53:18.240Z,0.70
2019-03-05T05:55:44.307Z,1.20
2019-03-05T05:58:10.348Z,1.07
2019-03-05T06:00:38.506Z,1.30
2019-03-05T06:03:04.662Z,0.90
2019-03-05T06:05:30.687Z,0.80
2019-03-05T06:07:56.771Z,1.20
2019-03-05T06:10:22.800Z,0.97
2019-03-05T06:12:48.945Z,1.00
2019-03-05T06:15:15.187Z,1.00
2019-03-05T06:17:41.219Z,0.90
2019-03-05T06:20:12.231Z,0.90
2019-03-05T06:22:38.264Z,1.10
2019-03-05T06:25:06.184Z,0.93
2019-03-05T06:27:32.235Z,1.23
2019-03-05T06:29:58.303Z,1.00
2019-03-05T06:32:24.383Z,1.20
2019-03-05T06:34:50.420Z,0.80
2019-03-05T06:37:16.471Z,1.10
2019-03-05T06:39:42.483Z,0.70
2019-03-05T06:42:08.535Z,0.90
2019-03-05T06:44:34.552Z,0.67
2019-03-05T06:47:00.575Z,0.83
2019-03-05T06:49:26.624Z,1.53
2019-03-05T06:51:52.670Z,0.90
2019-03-05T06:54:18.702Z,1.30
2019-03-05T06:56:44.725Z,0.93
2019-03-05T06:59:10.772Z,0.47
2019-03-05T07:01:36.787Z,0.90
2019-03-05T07:04:03.127Z,1.20
2019-03-05T07:06:49.363Z,1.23
2019-03-05T07:09:32.230Z,0.90
2019-03-05T07:12:20.055Z,1.00
2019-03-05T07:15:13.139Z,1.00
2019-03-05T07:17:42.983Z,1.07
2019-03-05T07:20:21.663Z,1.50
2019-03-05T07:23:00.931Z,0.83
2019-03-05T07:25:26.947Z,1.30
2019-03-05T07:27:53.204Z,3.50
2019-03-05T07:30:19.232Z,1.70
2019-03-05T07:32:45.385Z,1.13
2019-03-05T07:35:13.500Z,1.40
2019-03-05T07:37:39.540Z,1.20
2019-03-05T07:40:09.256Z,1.80
2019-03-05T07:42:35.308Z,1.60
2019-03-05T07:45:02.519Z,1.33
2019-03-05T07:47:28.589Z,1.27
2019-03-05T07:49:54.607Z,1.40
2019-03-05T07:52:20.632Z,1.70
2019-03-05T07:54:46.679Z,1.00
2019-03-05T07:57:12.699Z,1.07
2019-03-05T07:59:38.750Z,1.40
2019-03-05T08:02:04.887Z,1.37
2019-03-05T08:04:30.949Z,1.50
2019-03-05T08:06:56.952Z,1.57
2019-03-05T08:09:31.715Z,1.20
2019-03-05T08:12:10.782Z,2.03
2019-03-05T08:14:52.988Z,1.37
2019-03-05T08:17:19.013Z,1.73
2019-03-05T08:19:45.072Z,1.37
2019-03-05T08:22:11.299Z,1.00
2019-03-05T08:24:37.446Z,1.33
2019-03-05T08:27:03.571Z,1.13
2019-03-05T08:29:29.604Z,1.40
2019-03-05T08:31:55.655Z,1.23
2019-03-05T08:34:21.708Z,1.27
2019-03-05T08:36:47.723Z,1.47
2019-03-05T08:39:13.922Z,1.57
2019-03-05T08:41:39.943Z,1.60
2019-03-05T08:44:05.992Z,1.30
2019-03-05T08:46:32.012Z,0.83
2019-03-05T08:48:58.068Z,1.20
2019-03-05T08:51:24.092Z,1.43
2019-03-05T08:53:50.139Z,1.13
2019-03-05T08:56:16.184Z,1.20
2019-03-05T08:58:42.223Z,1.23
2019-03-05T09:01:08.244Z,1.33
2019-03-05T09:03:34.281Z,1.80
2019-03-05T09:06:00.296Z,1.63
2019-03-05T09:08:26.431Z,1.53
2019-03-05T09:10:52.440Z,1.10
2019-03-05T09:13:18.617Z,1.67
2019-03-05T09:15:44.710Z,1.87
2019-03-05T09:18:10.739Z,2.60
2019-03-05T09:20:36.859Z,1.47
2019-03-05T09:23:03.075Z,2.07
2019-03-05T09:25:29.110Z,2.13
2019-03-05T09:27:55.432Z,2.70
2019-03-05T09:30:22.671Z,2.20
2019-03-05T09:32:48.801Z,2.13
2019-03-05T09:35:15.548Z,1.67
2019-03-05T09:37:41.767Z,2.13
2019-03-05T09:40:11.613Z,2.37
2019-03-05T09:42:40.111Z,2.90
2019-03-05T09:45:09.383Z,1.93
2019-03-05T09:47:35.412Z,1.93
2019-03-05T09:50:02.020Z,2.00
2019-03-05T09:52:28.087Z,1.80
2019-03-05T09:54:54.132Z,1.80
2019-03-05T09:57:20.155Z,2.13
2019-03-05T09:59:46.195Z,1.50
2019-03-05T10:02:12.324Z,2.00
2019-03-05T10:04:38.352Z,2.20
2019-03-05T10:07:04.475Z,1.60
2019-03-05T10:09:30.508Z,2.03
2019-03-05T10:11:57.008Z,2.00
2019-03-05T10:14:23.179Z,0.97
2019-03-05T10:16:49.213Z,0.93
2019-03-05T10:19:15.260Z,0.57
2019-03-05T10:21:46.330Z,1.20
2019-03-05T10:24:29.279Z,0.90
2019-03-05T10:26:55.601Z,0.63
2019-03-05T10:29:21.660Z,1.07
2019-03-05T10:31:47.677Z,0.63
2019-03-05T10:34:13.722Z,1.00
2019-03-05T10:36:39.753Z,1.60
2019-03-05T10:39:30.589Z,0.77
2019-03-05T10:41:51.531Z,1.13
2019-03-05T10:44:18.193Z,1.17
2019-03-05T10:46:45.484Z,0.80
2019-03-05T10:49:11.524Z,1.40
2019-03-05T10:51:37.553Z,0.87
2019-03-05T10:54:03.587Z,1.73
2019-03-05T10:56:29.615Z,0.93
2019-03-05T10:58:55.666Z,0.90
2019-03-05T11:01:21.784Z,0.97
2019-03-05T11:03:47.795Z,1.13
2019-03-05T11:06:13.848Z,1.17
2019-03-05T11:08:39.967Z,1.30
2019-03-05T11:11:13.445Z,1.70
2019-03-05T11:13:34.303Z,2.60
2019-03-05T11:16:03.079Z,1.70
2019-03-05T11:18:30.128Z,1.33
2019-03-05T11:20:56.491Z,1.10
2019-03-05T11:23:22.511Z,1.17
2019-03-05T11:25:48.559Z,0.60
2019-03-05T11:28:14.586Z,1.17
2019-03-05T11:30:40.711Z,1.25
2019-03-05T11:33:06.890Z,1.10
2019-03-05T11:35:34.497Z,0.90
2019-03-05T11:38:00.739Z,0.90
2019-03-05T11:40:26.784Z,0.80
2019-03-05T11:42:52.991Z,0.80
2019-03-05T11:45:43.823Z,0.50
2019-03-05T11:48:10.145Z,0.30
2019-03-05T11:50:37.228Z,0.30
2019-03-05T11:53:03.369Z,0.73
2019-03-05T11:55:29.495Z,0.40
2019-03-05T11:57:55.708Z,0.20
2019-03-05T12:00:30.944Z,0.70
2019-03-05T12:02:57.164Z,1.23
2019-03-05T12:05:23.320Z,0.70
2019-03-05T12:07:49.355Z,0.57
2019-03-05T12:10:19.031Z,0.40
2019-03-05T12:12:45.153Z,0.50
2019-03-05T12:15:14.630Z,0.70
2019-03-05T12:17:40.664Z,0.50
2019-03-05T12:20:09.475Z,0.60
2019-03-05T12:22:35.528Z,0.40
2019-03-05T12:25:03.581Z,0.50
2019-03-05T12:27:29.768Z,0.50
2019-03-05T12:29:55.803Z,0.40
2019-03-05T12:32:21.815Z,0.60
2019-03-05T12:34:48.042Z,0.70
2019-03-05T12:37:14.079Z,0.90
2019-03-05T12:39:40.172Z,0.80
2019-03-05T12:42:06.217Z,0.60
2019-03-05T12:44:32.224Z,0.40
2019-03-05T12:46:58.263Z,0.60
2019-03-05T12:49:24.307Z,0.63
2019-03-05T12:51:50.311Z,0.50
2019-03-05T12:54:16.351Z,0.67
2019-03-05T12:56:42.368Z,0.67
2019-03-05T12:59:08.411Z,0.60
2019-03-05T13:01:35.079Z,0.77
2019-03-05T13:04:01.328Z,0.57
2019-03-05T13:06:27.353Z,0.80
2019-03-05T13:08:53.379Z,0.70
2019-03-05T13:11:19.404Z,0.40
2019-03-05T13:13:47.568Z,0.73
2019-03-05T13:16:35.309Z,0.40
2019-03-05T13:19:01.280Z,0.57
2019-03-05T13:21:29.222Z,0.50
2019-03-05T13:23:55.233Z,1.00
2019-03-05T13:26:21.348Z,0.63
2019-03-05T13:28:47.367Z,0.60
2019-03-05T13:31:13.401Z,0.60
2019-03-05T13:33:41.953Z,0.47
2019-03-05T13:36:12.088Z,0.50
2019-03-05T13:38:35.279Z,1.00
2019-03-05T13:41:01.323Z,0.30
2019-03-05T13:43:27.355Z,0.40
2019-03-05T13:45:53.479Z,0.47
2019-03-05T13:48:44.462Z,0.90
2019-03-05T13:51:37.500Z,0.40
2019-03-05T13:54:09.437Z,0.40
2019-03-05T13:57:15.327Z,0.37
2019-03-05T13:59:46.911Z,0.23
2019-03-05T14:02:19.424Z,0.40
2019-03-05T14:04:58.072Z,0.30
2019-03-05T14:07:39.969Z,0.70
2019-03-05T14:10:06.021Z,0.43
2019-03-05T14:12:32.140Z,0.63
2019-03-05T14:14:58.267Z,1.10
2019-03-05T14:17:25.450Z,1.30
2019-03-05T14:19:54.231Z,1.00
2019-03-05T14:22:20.408Z,0.90
2019-03-05T14:24:46.431Z,0.50
2019-03-05T14:27:12.487Z,0.53
2019-03-05T14:29:38.587Z,0.90
2019-03-05T14:32:04.788Z,0.60
2019-03-05T14:34:30.862Z,0.80
2019-03-05T14:36:56.934Z,0.80
2019-03-05T14:39:30.362Z,0.50
2019-03-05T14:41:56.410Z,0.43
2019-03-05T14:44:42.295Z,2.20
2019-03-05T14:47:08.353Z,0.80
2019-03-05T14:49:34.355Z,0.63
2019-03-05T14:52:02.090Z,0.40
2019-03-05T14:54:28.141Z,0.40
2019-03-05T14:56:54.257Z,0.53
2019-03-05T14:59:20.310Z,0.50
2019-03-05T15:01:46.474Z,0.70
2019-03-05T15:04:12.593Z,0.70
2019-03-05T15:06:38.717Z,0.87
2019-03-05T15:09:04.899Z,0.70
2019-03-05T15:11:31.064Z,0.30
2019-03-05T15:13:57.097Z,0.60
2019-03-05T15:16:23.739Z,0.70
2019-03-05T15:18:49.834Z,0.60
2019-03-05T15:21:17.901Z,0.53
2019-03-05T15:23:44.153Z,0.60
2019-03-05T15:26:10.273Z,0.77
2019-03-05T15:28:36.294Z,0.63
2019-03-05T15:31:02.551Z,0.80
2019-03-05T15:33:28.613Z,0.60
2019-03-05T15:35:54.674Z,0.83
2019-03-05T15:38:20.884Z,0.73
2019-03-05T15:41:07.088Z,0.63
2019-03-05T15:43:33.203Z,0.87
2019-03-05T15:45:59.253Z,0.90
2019-03-05T15:48:25.387Z,0.80
2019-03-05T15:50:51.484Z,1.00
2019-03-05T15:53:17.538Z,0.77
2019-03-05T15:55:43.568Z,0.90
2019-03-05T15:58:09.819Z,0.80
2019-03-05T16:00:35.944Z,1.30
2019-03-05T16:03:21.882Z,1.47
2019-03-05T16:05:47.909Z,1.97
2019-03-05T16:08:13.964Z,2.40
2019-03-05T16:10:40.001Z,1.70
2019-03-05T16:13:06.083Z,4.13
2019-03-05T16:15:32.230Z,1.60
2019-03-05T16:18:01.238Z,2.40
2019-03-05T16:20:27.445Z,2.27
2019-03-05T16:22:55.068Z,1.77
2019-03-05T16:25:22.358Z,2.07
2019-03-05T16:30:42.306Z,1.53
2019-03-05T16:33:19.303Z,1.47
2019-03-05T16:36:04.237Z,1.67
2019-03-05T16:38:47.260Z,1.73
2019-03-05T16:41:20.534Z,1.90
2019-03-05T16:44:04.328Z,1.77
2019-03-05T16:46:35.157Z,2.37
2019-03-05T16:49:03.295Z,3.93
2019-03-05T16:51:31.303Z,4.53
2019-03-05T16:53:59.656Z,2.87
2019-03-05T16:56:42.690Z,1.67
2019-03-05T16:59:13.548Z,1.90
2019-03-05T17:01:50.811Z,1.50
2019-03-05T17:04:19.036Z,2.10
2019-03-05T17:07:03.676Z,1.70
2019-03-05T17:09:37.548Z,1.87
2019-03-05T17:12:03.984Z,2.13
2019-03-05T17:14:30.056Z,1.53
2019-03-05T17:16:56.184Z,1.80
2019-03-05T17:19:22.468Z,2.97
2019-03-05T17:21:48.492Z,1.70
2019-03-05T17:24:15.340Z,2.00
2019-03-05T17:26:41.376Z,2.27
2019-03-05T17:29:07.428Z,2.47
2019-03-05T17:31:33.452Z,2.47
2019-03-05T17:33:59.529Z,2.40
2019-03-05T17:36:25.660Z,1.80
2019-03-05T17:38:52.123Z,2.13
2019-03-05T17:41:18.303Z,2.10
2019-03-05T17:43:44.341Z,2.20
2019-03-05T17:46:10.373Z,2.80
2019-03-05T17:48:36.450Z,2.83
2019-03-05T17:51:02.971Z,2.60
2019-03-05T17:53:29.445Z,2.70
2019-03-05T17:55:55.509Z,2.83
2019-03-05T17:58:21.568Z,2.50
2019-03-05T18:00:48.871Z,2.50
2019-03-05T18:03:15.016Z,2.55
2019-03-05T18:10:37.257Z,2.77
2019-03-05T18:11:46.922Z,3.47
2019-03-05T18:14:13.087Z,3.73
2019-03-05T18:16:39.091Z,4.00
2019-03-05T18:19:05.148Z,4.10
2019-03-05T18:21:31.175Z,3.87
2019-03-05T18:23:57.211Z,3.93
2019-03-05T18:26:23.224Z,4.00
2019-03-05T18:28:49.268Z,4.30
2019-03-05T18:31:15.287Z,3.53
2019-03-05T18:33:41.447Z,3.57
2019-03-05T18:36:07.499Z,3.87
2019-03-05T18:38:34.016Z,3.93
2019-03-05T18:41:00.036Z,3.60
2019-03-05T18:43:26.179Z,3.77
2019-03-05T18:45:52.204Z,3.80
2019-03-05T18:48:18.230Z,3.60
2019-03-05T18:50:44.267Z,3.33
2019-03-05T18:53:10.611Z,3.47
2019-03-05T18:55:36.656Z,3.53
2019-03-05T18:58:02.803Z,4.80
2019-03-05T19:00:33.075Z,3.97
2019-03-05T19:03:16.455Z,4.13
2019-03-05T19:05:42.908Z,3.70
2019-03-05T19:08:08.926Z,3.90
2019-03-05T19:10:35.172Z,4.37
2019-03-05T19:13:01.215Z,3.97
2019-03-05T19:15:28.739Z,4.00
2019-03-05T19:17:54.747Z,4.57
2019-03-05T19:20:26.272Z,4.83
2019-03-05T19:22:52.386Z,4.70
2019-03-05T19:25:21.581Z,4.73
2019-03-05T19:27:47.707Z,4.70
2019-03-05T19:30:22.890Z,4.50
2019-03-05T19:32:49.019Z,4.23
2019-03-05T19:35:15.065Z,5.10
2019-03-05T19:37:41.092Z,4.43
2019-03-05T19:40:10.744Z,4.93
2019-03-05T19:42:36.767Z,4.20
2019-03-05T19:45:06.199Z,4.37
2019-03-05T19:47:32.212Z,3.77
2019-03-05T19:49:58.256Z,4.03
2019-03-05T19:52:24.279Z,3.73
2019-03-05T19:54:50.354Z,3.27
2019-03-05T19:57:16.382Z,3.23
2019-03-05T19:59:42.731Z,3.23
2019-03-05T20:02:08.927Z,2.87
2019-03-05T20:04:34.988Z,3.07
2019-03-05T20:07:01.003Z,3.20
2019-03-05T20:09:27.112Z,2.97
2019-03-05T20:11:53.215Z,4.50
2019-03-05T20:14:19.437Z,4.83
2019-03-05T20:16:45.496Z,3.83
2019-03-05T20:19:11.524Z,4.80
2019-03-05T20:21:37.664Z,5.20
2019-03-05T20:24:03.991Z,5.67
2019-03-05T20:26:32.932Z,5.37
2019-03-05T20:28:59.263Z,5.60
2019-03-05T20:31:25.312Z,4.97
2019-03-05T20:33:51.362Z,5.37
2019-03-05T20:36:17.423Z,4.87
2019-03-05T20:38:43.437Z,6.43
2019-03-05T20:41:09.486Z,4.80
2019-03-05T20:43:35.611Z,5.00
2019-03-05T20:46:05.559Z,5.30
2019-03-05T20:48:31.564Z,5.57
2019-03-05T20:50:57.727Z,6.07
2019-03-05T20:53:23.760Z,5.73
2019-03-05T20:55:49.835Z,5.50
2019-03-05T20:58:15.872Z,5.10
2019-03-05T21:03:14.069Z,5.27
2019-03-05T21:05:42.073Z,5.87
2019-03-05T21:08:08.287Z,5.80
2019-03-05T21:10:34.418Z,7.22
2019-03-05T21:13:02.714Z,5.83
2019-03-05T21:15:30.108Z,5.77
2019-03-05T21:17:56.123Z,5.97
2019-03-05T21:20:22.150Z,5.90
2019-03-05T21:22:48.199Z,6.10
2019-03-05T21:25:18.093Z,6.07
2019-03-05T21:27:44.443Z,6.33
2019-03-05T21:30:18.483Z,5.43
2019-03-05T21:32:44.615Z,6.30
2019-03-05T21:35:11.835Z,6.60
2019-03-05T21:37:37.879Z,7.13
2019-03-05T21:40:08.007Z,7.50
2019-03-05T21:42:34.049Z,7.10
2019-03-05T21:45:00.075Z,7.00
2019-03-05T21:47:26.123Z,7.67
2019-03-05T21:49:52.155Z,7.80
2019-03-05T21:52:18.295Z,7.57
2019-03-05T21:54:44.715Z,8.33
2019-03-05T21:57:10.755Z,8.43
2019-03-05T21:59:36.783Z,10.07
2019-03-05T22:02:02.862Z,11.00
2019-03-05T22:04:28.906Z,11.13
2019-03-05T22:07:14.820Z,11.37
2019-03-05T22:09:40.947Z,11.87
2019-03-05T22:12:07.083Z,11.37
2019-03-05T22:14:33.107Z,10.93
2019-03-05T22:16:59.178Z,11.43
2019-03-05T22:19:25.207Z,10.90
2019-03-05T22:21:51.528Z,11.07
2019-03-05T22:24:17.589Z,11.80
2019-03-05T22:26:43.704Z,11.67
2019-03-05T22:29:09.727Z,10.97
2019-03-05T22:31:35.823Z,11.67
2019-03-05T22:34:01.868Z,12.50
2019-03-05T22:36:28.748Z,11.53
2019-03-05T22:38:54.779Z,11.63
2019-03-05T22:41:20.811Z,12.20
2019-03-05T22:43:46.837Z,12.60
2019-03-05T22:46:12.867Z,11.83
2019-03-05T22:48:39.040Z,13.43
2019-03-05T22:51:05.118Z,12.77
2019-03-05T22:53:31.164Z,13.87
2019-03-05T22:55:57.171Z,13.50
2019-03-05T22:58:23.211Z,14.03
2019-03-05T23:00:58.178Z,12.40
2019-03-05T23:03:28.699Z,13.30
2019-03-05T23:05:55.210Z,12.43
2019-03-05T23:08:21.548Z,12.33
2019-03-05T23:10:47.768Z,12.00
2019-03-05T23:13:16.112Z,13.07
2019-03-05T23:15:42.143Z,12.70
2019-03-05T23:18:08.194Z,12.03
2019-03-05T23:20:34.203Z,12.47
2019-03-05T23:23:00.245Z,13.62
2019-03-05T23:25:26.256Z,10.00
2019-03-05T23:27:52.292Z,9.33
2019-03-05T23:30:20.019Z,10.30
2019-03-05T23:32:53.759Z,9.47
2019-03-05T23:35:20.171Z,9.33
2019-03-05T23:37:46.219Z,8.40
2019-03-05T23:40:15.035Z,7.90
2019-03-05T23:42:41.083Z,9.03
2019-03-05T23:45:09.804Z,8.13
2019-03-05T23:47:35.844Z,7.67
2019-03-05T23:50:06.791Z,8.03
2019-03-05T23:52:32.840Z,8.40
2019-03-05T23:54:58.864Z,8.73
2019-03-05T23:57:24.918Z,8.43
2019-03-05T23:59:50.939Z,8.57
